Time;durP1;ratioP1;P1;durP2;ratioP2;P2;SDS_P1;SDS_P2;PMS_P1;PMS_P2;Temp;Humidity;BMP_temperature;BMP_pressure;BME280_temperature;BME280_humidity;BME280_pressure;Samples;Min_cycle;Max_cycle;Signal;HPM_P1;HPM_P2
2022/01/12 06:41:58;;;;;;;14.55;9.95;;;5.30;55.20;;;;;;5006131;28;20053;-79
2022/01/12 06:44:25;;;;;;;14.25;9.50;;;5.30;55.00;;;;;;5012446;28;20034;-79
2022/01/12 06:46:52;;;;;;;17.95;9.70;;;5.30;55.30;;;;;;5011163;28;20030;-78
2022/01/12 06:49:19;;;;;;;14.02;10.10;;;5.40;55.40;;;;;;5007350;28;20069;-79
2022/01/12 06:51:46;;;;;;;16.83;10.07;;;5.40;55.80;;;;;;5014476;28;20048;-78
2022/01/12 06:54:14;;;;;;;16.15;10.90;;;5.40;55.60;;;;;;4995155;28;20043;-79
2022/01/12 06:56:40;;;;;;;18.13;11.65;;;5.40;55.80;;;;;;5011499;28;20040;-79
2022/01/12 06:59:06;;;;;;;17.42;10.65;;;5.50;55.80;;;;;;5011433;28;20038;-78
2022/01/12 07:01:32;;;;;;;16.23;11.48;;;5.40;55.90;;;;;;5010471;28;20053;-77
2022/01/12 07:03:58;;;;;;;14.75;10.50;;;5.40;56.60;;;;;;5012046;28;20038;-75
2022/01/12 07:06:24;;;;;;;16.33;11.18;;;5.30;56.20;;;;;;4995121;28;20125;-76
2022/01/12 07:08:51;;;;;;;20.17;11.63;;;5.30;56.40;;;;;;4991423;28;20089;-76
2022/01/12 07:11:16;;;;;;;18.70;11.88;;;5.30;56.70;;;;;;4992199;28;20414;-76
2022/01/12 07:13:43;;;;;;;15.75;10.48;;;5.30;56.80;;;;;;5014598;28;20073;-76
2022/01/12 07:16:08;;;;;;;16.02;10.68;;;5.20;56.90;;;;;;5016397;28;20041;-78
2022/01/12 07:18:34;;;;;;;17.55;11.27;;;5.00;57.10;;;;;;5016895;28;20033;-77
2022/01/12 07:21:00;;;;;;;14.30;9.18;;;4.70;57.40;;;;;;5007362;28;20033;-76
2022/01/12 07:23:27;;;;;;;14.82;9.52;;;4.80;58.40;;;;;;5015177;28;20061;-73
2022/01/12 07:25:53;;;;;;;17.70;10.07;;;4.90;58.00;;;;;;5015735;28;20064;-75
2022/01/12 07:28:19;;;;;;;15.45;10.40;;;5.10;57.90;;;;;;5012116;28;20050;-75
2022/01/12 07:30:46;;;;;;;16.25;10.63;;;5.20;57.60;;;;;;5016265;28;20034;-76
2022/01/12 07:33:12;;;;;;;15.50;10.40;;;5.20;57.60;;;;;;5018824;28;20041;-78
2022/01/12 07:35:39;;;;;;;15.82;10.48;;;5.30;57.50;;;;;;5011267;28;20037;-77
2022/01/12 07:38:04;;;;;;;17.80;12.05;;;5.30;57.50;;;;;;4999922;28;20564;-77
2022/01/12 07:40:30;;;;;;;17.50;10.88;;;5.30;57.60;;;;;;4994740;28;20037;-79
2022/01/12 07:42:56;;;;;;;17.38;10.73;;;5.20;57.70;;;;;;5002469;28;20494;-78
2022/01/12 07:45:22;;;;;;;41.28;27.30;;;5.20;58.00;;;;;;4995562;28;20179;-78
2022/01/12 07:47:48;;;;;;;213.73;133.50;;;5.30;58.40;;;;;;5014297;28;20034;-78
2022/01/12 07:50:14;;;;;;;60.80;42.17;;;5.40;58.20;;;;;;5013604;28;20064;-77
2022/01/12 07:52:39;;;;;;;23.90;15.63;;;5.40;58.10;;;;;;5013004;28;20046;-79
2022/01/12 07:55:06;;;;;;;18.38;12.77;;;5.50;57.60;;;;;;5012021;28;20038;-79
2022/01/12 07:57:32;;;;;;;16.10;10.80;;;5.40;57.60;;;;;;5014819;28;20034;-78
2022/01/12 07:59:58;;;;;;;18.92;12.10;;;5.50;57.80;;;;;;4998931;28;20486;-78
2022/01/12 08:02:24;;;;;;;13.50;9.73;;;5.50;57.80;;;;;;5008709;28;20042;-78
2022/01/12 08:04:50;;;;;;;16.65;10.70;;;5.50;57.40;;;;;;5015192;28;20038;-77
2022/01/12 08:07:15;;;;;;;15.77;9.90;;;5.60;57.80;;;;;;5014378;28;20038;-77
2022/01/12 08:09:42;;;;;;;19.63;12.80;;;5.50;56.30;;;;;;4997329;28;20517;-78
2022/01/12 08:12:09;;;;;;;17.27;10.80;;;5.60;55.80;;;;;;5014669;28;20037;-77
2022/01/12 08:14:35;;;;;;;13.45;9.80;;;5.50;56.70;;;;;;5013828;28;20045;-78
2022/01/12 08:17:01;;;;;;;18.17;12.05;;;5.60;56.80;;;;;;5015094;28;20022;-80
2022/01/12 08:19:28;;;;;;;18.63;11.10;;;5.60;56.30;;;;;;5013828;28;20119;-81
2022/01/12 08:21:55;;;;;;;18.17;12.00;;;5.70;57.00;;;;;;5014193;28;20030;-81
2022/01/12 08:24:21;;;;;;;18.35;11.52;;;5.70;56.50;;;;;;5012539;28;20117;-80
2022/01/12 08:26:48;;;;;;;17.40;10.73;;;5.70;56.20;;;;;;5014623;28;20026;-80
2022/01/12 08:29:15;;;;;;;15.95;10.43;;;5.60;56.30;;;;;;5014257;28;20390;-80
2022/01/12 08:31:45;;;;;;;19.40;11.13;;;5.60;56.70;;;;;;5012812;28;20038;-80
2022/01/12 08:34:11;;;;;;;16.92;10.60;;;5.60;57.30;;;;;;5013863;28;20374;-80
2022/01/12 08:36:39;;;;;;;17.15;11.45;;;5.80;58.50;;;;;;4996308;28;20037;-80
2022/01/12 08:39:08;;;;;;;16.98;12.18;;;5.90;58.10;;;;;;5014713;28;20113;-77
2022/01/12 08:41:35;;;;;;;16.23;10.93;;;6.00;58.30;;;;;;4996877;28;20053;-78
2022/01/12 08:44:01;;;;;;;15.77;11.25;;;6.10;58.20;;;;;;4993142;28;20068;-77
2022/01/12 08:46:27;;;;;;;15.23;10.48;;;6.20;58.50;;;;;;4996168;28;20078;-76
2022/01/12 08:48:52;;;;;;;16.02;11.38;;;6.30;57.30;;;;;;5005296;28;20046;-77
2022/01/12 08:51:18;;;;;;;18.30;12.15;;;6.30;55.60;;;;;;5013612;28;20036;-76
2022/01/12 08:53:54;;;;;;;15.18;10.88;;;6.30;55.30;;;;;;5013482;28;20525;-77
2022/01/12 08:56:20;;;;;;;16.17;11.13;;;6.30;55.00;;;;;;5012932;28;20065;-79
2022/01/12 08:58:47;;;;;;;12.48;9.05;;;6.50;55.50;;;;;;4994861;28;20053;-80
2022/01/12 09:01:13;;;;;;;15.80;10.60;;;6.60;55.30;;;;;;4995523;28;20054;-81
2022/01/12 09:03:40;;;;;;;13.20;10.18;;;6.80;54.90;;;;;;5013444;28;20073;-81
2022/01/12 09:06:06;;;;;;;14.50;10.05;;;7.00;55.40;;;;;;5013416;28;20454;-81
2022/01/12 09:08:38;;;;;;;14.77;9.48;;;7.20;54.60;;;;;;5030218;28;20060;-80
2022/01/12 09:11:04;;;;;;;14.15;9.52;;;7.40;54.50;;;;;;5033647;28;20061;-81
2022/01/12 09:13:30;;;;;;;13.82;8.73;;;7.50;53.90;;;;;;5029385;28;20029;-80
2022/01/12 09:15:56;;;;;;;15.02;8.20;;;7.60;53.70;;;;;;5012570;28;20049;-81
2022/01/12 09:18:22;;;;;;;11.27;7.85;;;7.70;53.50;;;;;;5013594;28;20044;-80
2022/01/12 09:20:49;;;;;;;10.18;7.18;;;7.80;51.80;;;;;;4995381;28;20038;-81
2022/01/12 09:23:16;;;;;;;21.13;9.57;;;7.90;49.80;;;;;;5018226;28;20029;-81
2022/01/12 09:25:41;;;;;;;13.00;8.90;;;7.90;45.90;;;;;;4995381;28;20034;-80
2022/01/12 09:28:08;;;;;;;14.45;8.43;;;7.70;47.60;;;;;;5012882;28;20087;-80
2022/01/12 09:30:34;;;;;;;12.40;8.35;;;7.80;49.40;;;;;;5013532;28;20033;-80
2022/01/12 09:33:00;;;;;;;14.68;9.52;;;7.80;47.30;;;;;;5014149;28;20046;-80
2022/01/12 09:35:27;;;;;;;14.65;10.00;;;7.80;46.10;;;;;;4995307;28;20490;-80
2022/01/12 09:37:52;;;;;;;13.43;8.43;;;7.80;46.40;;;;;;4995284;28;20076;-81
2022/01/12 09:40:18;;;;;;;15.55;10.43;;;7.90;48.20;;;;;;5013288;28;20160;-80
2022/01/12 09:42:47;;;;;;;13.35;9.13;;;7.80;45.80;;;;;;5024508;28;20612;-81
2022/01/12 09:45:15;;;;;;;13.27;9.30;;;7.90;46.60;;;;;;5021849;28;20038;-80
2022/01/12 09:47:43;;;;;;;13.30;9.98;;;8.00;48.40;;;;;;5013969;28;20391;-80
2022/01/12 09:50:11;;;;;;;22.42;13.63;;;8.10;47.70;;;;;;4996121;28;20037;-80
2022/01/12 09:52:37;;;;;;;15.07;10.40;;;8.20;47.00;;;;;;5013328;28;20065;-80
2022/01/12 09:55:04;;;;;;;13.75;9.60;;;8.30;48.40;;;;;;4995491;28;20072;-80
2022/01/12 09:57:29;;;;;;;14.98;9.63;;;8.50;48.90;;;;;;5012741;28;20080;-81
2022/01/12 09:59:56;;;;;;;16.27;10.80;;;8.70;48.30;;;;;;4995372;28;20501;-80
2022/01/12 10:02:21;;;;;;;14.95;10.50;;;8.90;48.90;;;;;;5013081;28;20037;-80
2022/01/12 10:04:58;;;;;;;15.98;10.65;;;9.10;49.20;;;;;;5024758;28;20408;-81
2022/01/12 10:07:25;;;;;;;12.27;9.93;;;9.10;44.30;;;;;;5033253;28;20033;-80
2022/01/12 10:09:56;;;;;;;13.20;10.07;;;9.20;47.70;;;;;;5014680;28;20041;-82
2022/01/12 10:12:22;;;;;;;16.17;11.82;;;9.30;46.10;;;;;;5011759;28;20441;-79
2022/01/12 10:14:49;;;;;;;12.07;8.57;;;9.30;42.10;;;;;;5010963;28;20065;-78
2022/01/12 10:17:17;;;;;;;15.25;10.07;;;9.30;45.30;;;;;;5011175;28;20040;-78
2022/01/12 10:19:43;;;;;;;13.15;9.10;;;9.30;40.80;;;;;;5011894;28;20034;-78
2022/01/12 10:22:14;;;;;;;11.35;8.15;;;9.20;40.40;;;;;;5011806;28;20038;-78
2022/01/12 10:24:45;;;;;;;13.05;9.13;;;9.20;41.40;;;;;;5018588;28;20050;-77
2022/01/12 10:27:13;;;;;;;15.30;9.27;;;9.10;42.40;;;;;;4994518;28;20555;-79
2022/01/12 10:29:39;;;;;;;14.70;10.25;;;9.20;44.10;;;;;;5011727;28;20042;-79
2022/01/12 10:32:08;;;;;;;12.20;8.73;;;9.30;42.10;;;;;;5012435;28;20497;-79
2022/01/12 10:34:46;;;;;;;20.10;11.43;;;9.50;43.50;;;;;;4994644;28;20081;-78
2022/01/12 10:37:17;;;;;;;18.50;9.05;;;9.60;40.70;;;;;;4992765;28;20045;-78
2022/01/12 10:39:45;;;;;;;10.88;8.07;;;9.70;43.10;;;;;;5011770;28;20042;-78
2022/01/12 10:42:14;;;;;;;10.23;7.47;;;10.00;37.20;;;;;;5011018;28;20068;-78
2022/01/12 10:44:42;;;;;;;8.63;5.82;;;10.30;40.80;;;;;;5024435;28;20498;-78
2022/01/12 10:47:16;;;;;;;7.13;4.72;;;10.20;33.90;;;;;;5020476;28;20042;-78
2022/01/12 10:49:56;;;;;;;6.45;5.07;;;10.30;34.40;;;;;;5015602;28;20045;-82
2022/01/12 10:52:23;;;;;;;6.30;5.13;;;10.40;35.10;;;;;;5009138;28;20034;-81
2022/01/12 10:54:54;;;;;;;7.55;5.60;;;10.30;32.70;;;;;;5015886;28;20053;-82
2022/01/12 10:57:22;;;;;;;7.60;5.45;;;10.30;31.80;;;;;;5012882;28;20100;-81
2022/01/12 11:00:05;;;;;;;6.88;4.50;;;10.50;35.60;;;;;;4998146;28;20512;-81
2022/01/12 11:02:32;;;;;;;5.40;4.47;;;10.80;34.50;;;;;;4998839;28;20041;-81
2022/01/12 11:04:59;;;;;;;6.80;5.18;;;11.20;39.10;;;;;;5017787;28;20092;-86
2022/01/12 11:07:26;;;;;;;9.02;6.10;;;11.50;39.20;;;;;;5015644;28;20046;-76
2022/01/12 11:09:57;;;;;;;7.68;5.90;;;11.70;35.20;;;;;;5016198;28;20121;-85
2022/01/12 11:12:23;;;;;;;8.13;6.05;;;11.80;32.60;;;;;;5016154;28;20092;-82
2022/01/12 11:14:50;;;;;;;8.73;6.53;;;11.80;32.80;;;;;;5015655;28;20037;-81
2022/01/12 11:17:16;;;;;;;7.75;5.82;;;11.80;32.70;;;;;;5014501;28;20092;-81
2022/01/12 11:19:54;;;;;;;8.32;6.47;;;11.90;34.10;;;;;;5014820;28;20521;-82
2022/01/12 11:22:37;;;;;;;6.93;5.68;;;12.00;34.20;;;;;;5013851;28;20473;-82
2022/01/12 11:25:15;;;;;;;6.63;5.22;;;12.00;34.30;;;;;;5009937;28;20046;-83
2022/01/12 11:27:43;;;;;;;8.60;5.68;;;12.10;33.70;;;;;;4992550;28;20049;-82
2022/01/12 11:30:37;;;;;;;6.80;5.63;;;12.30;33.10;;;;;;4991804;28;20045;-83
2022/01/12 11:33:09;;;;;;;7.72;5.88;;;12.50;34.00;;;;;;5012806;28;20097;-82
2022/01/12 11:35:40;;;;;;;6.32;5.22;;;12.60;32.40;;;;;;5025236;28;20497;-81
2022/01/12 11:38:06;;;;;;;7.78;5.68;;;12.80;33.40;;;;;;5015421;28;20038;-82
2022/01/12 11:40:38;;;;;;;8.35;5.47;;;13.10;29.30;;;;;;5025068;28;20069;-78
2022/01/12 11:43:16;;;;;;;7.97;5.65;;;13.10;28.60;;;;;;5014261;28;20123;-77
2022/01/12 11:45:41;;;;;;;7.18;5.75;;;13.10;29.20;;;;;;5002222;28;20092;-77
2022/01/12 11:48:07;;;;;;;8.30;6.00;;;13.30;29.10;;;;;;4997485;28;20041;-77
2022/01/12 11:50:33;;;;;;;6.13;4.63;;;13.50;28.40;;;;;;5006867;28;20079;-78
2022/01/12 11:52:59;;;;;;;5.40;4.68;;;14.00;29.80;;;;;;5010101;28;20034;-77
2022/01/12 11:55:32;;;;;;;6.93;5.32;;;15.00;29.40;;;;;;4993734;28;20035;-77
2022/01/12 11:58:03;;;;;;;6.88;5.20;;;16.20;28.50;;;;;;5013936;28;20037;-78
2022/01/12 12:00:30;;;;;;;6.63;4.82;;;17.40;27.30;;;;;;5005297;28;20030;-77
2022/01/12 12:02:57;;;;;;;6.93;5.40;;;18.40;24.90;;;;;;4997460;28;20044;-84
2022/01/12 12:05:28;;;;;;;6.22;5.13;;;19.00;23.90;;;;;;5013398;28;20039;-83
2022/01/12 12:08:01;;;;;;;5.15;4.65;;;19.40;23.10;;;;;;5010571;28;20038;-84
2022/01/12 12:10:28;;;;;;;6.15;5.18;;;19.60;21.70;;;;;;5013436;28;20050;-84
2022/01/12 12:12:56;;;;;;;9.00;4.95;;;19.90;21.30;;;;;;5013954;28;20065;-84
2022/01/12 12:15:25;;;;;;;8.50;5.65;;;20.20;22.30;;;;;;5013413;28;20463;-84
2022/01/12 12:17:52;;;;;;;6.70;5.07;;;20.40;20.80;;;;;;4996801;28;20085;-84
2022/01/12 12:20:20;;;;;;;9.13;7.10;;;20.80;21.90;;;;;;5009934;28;20047;-82
2022/01/12 12:22:47;;;;;;;5.97;5.05;;;21.10;21.10;;;;;;5008568;28;20469;-83
2022/01/12 12:25:21;;;;;;;7.13;4.68;;;21.50;21.10;;;;;;4995062;28;20050;-81
2022/01/12 12:27:53;;;;;;;5.93;4.75;;;21.10;19.90;;;;;;5011196;28;20062;-81
2022/01/12 12:30:21;;;;;;;6.60;5.47;;;21.10;20.80;;;;;;5008984;28;20311;-82
2022/01/12 12:32:52;;;;;;;10.38;5.90;;;21.20;20.10;;;;;;5006457;28;20033;-82
2022/01/12 12:35:25;;;;;;;7.30;6.00;;;21.30;21.30;;;;;;5012218;28;20045;-82
2022/01/12 12:37:54;;;;;;;6.75;5.78;;;21.60;21.70;;;;;;5011764;28;20038;-81
2022/01/12 12:40:22;;;;;;;6.30;5.28;;;21.50;20.30;;;;;;5007348;28;20545;-81
2022/01/12 12:43:00;;;;;;;7.03;4.90;;;21.00;21.00;;;;;;4986844;28;20092;-80
2022/01/12 12:45:40;;;;;;;5.68;4.75;;;21.20;21.40;;;;;;5012381;28;20122;-80
2022/01/12 12:48:08;;;;;;;6.28;5.22;;;20.70;19.40;;;;;;4992992;28;20054;-81
2022/01/12 12:50:34;;;;;;;6.38;4.85;;;20.20;20.60;;;;;;5011275;28;20073;-82
2022/01/12 12:53:00;;;;;;;6.05;3.90;;;20.00;20.80;;;;;;5010535;28;20508;-81
2022/01/12 12:55:33;;;;;;;5.72;4.65;;;19.90;20.80;;;;;;5009043;28;20040;-82
2022/01/12 12:57:59;;;;;;;6.13;4.53;;;19.40;21.70;;;;;;5005184;28;20057;-80
2022/01/12 13:00:26;;;;;;;6.68;4.28;;;19.60;21.50;;;;;;5010510;28;20038;-80
2022/01/12 13:02:55;;;;;;;5.80;4.35;;;19.70;21.30;;;;;;5010085;28;20042;-80
2022/01/12 13:05:23;;;;;;;6.43;4.75;;;20.10;21.50;;;;;;5012483;28;20057;-79
2022/01/12 13:07:50;;;;;;;4.63;4.03;;;20.30;20.40;;;;;;5010367;28;20026;-82
2022/01/12 13:10:19;;;;;;;5.93;4.65;;;20.20;20.10;;;;;;5010605;28;20551;-80
2022/01/12 13:13:06;;;;;;;5.70;4.07;;;20.40;20.60;;;;;;4990037;28;20045;-80
2022/01/12 13:15:40;;;;;;;5.00;4.32;;;20.70;21.00;;;;;;5011277;28;20042;-81
2022/01/12 13:18:23;;;;;;;5.75;4.95;;;21.20;21.40;;;;;;4989509;28;20413;-80
2022/01/12 13:21:07;;;;;;;7.50;4.38;;;21.50;20.80;;;;;;5009900;28;20041;-80
2022/01/12 13:23:44;;;;;;;5.28;4.47;;;21.40;20.20;;;;;;5008879;28;20504;-78
2022/01/12 13:26:15;;;;;;;5.47;4.55;;;21.00;19.40;;;;;;5007975;28;20034;-79
2022/01/12 13:28:46;;;;;;;5.20;4.60;;;20.90;20.00;;;;;;5005129;28;20427;-79
2022/01/12 13:31:14;;;;;;;6.15;4.70;;;20.80;20.30;;;;;;5009366;28;20494;-79
2022/01/12 13:33:42;;;;;;;6.40;4.68;;;20.40;20.90;;;;;;5007605;28;20044;-77
2022/01/12 13:36:43;;;;;;;5.85;5.00;;;19.80;20.60;;;;;;5009136;28;20108;-81
2022/01/12 13:39:12;;;;;;;7.35;5.15;;;19.10;20.90;;;;;;4992061;28;20041;-77
2022/01/12 13:41:39;;;;;;;6.43;5.03;;;18.20;21.40;;;;;;5015016;28;20038;-77
2022/01/12 13:44:17;;;;;;;6.35;4.70;;;17.10;22.10;;;;;;4996632;28;20136;-76
2022/01/12 13:47:03;;;;;;;7.28;5.57;;;16.50;22.70;;;;;;5013626;28;20088;-76
2022/01/12 13:49:29;;;;;;;6.43;4.85;;;15.70;22.50;;;;;;4996175;28;20042;-76
2022/01/12 13:51:58;;;;;;;6.43;4.75;;;15.30;23.60;;;;;;4994947;28;20041;-76
2022/01/12 13:54:38;;;;;;;6.38;4.90;;;15.10;23.80;;;;;;5012837;28;20065;-76
2022/01/12 13:57:05;;;;;;;5.63;3.92;;;14.70;24.20;;;;;;4998675;28;20034;-77
2022/01/12 13:59:42;;;;;;;6.00;4.60;;;14.50;24.40;;;;;;5013795;28;20117;-77
2022/01/12 14:02:13;;;;;;;8.57;5.60;;;14.50;24.70;;;;;;4996144;28;20125;-76
2022/01/12 14:04:40;;;;;;;7.07;5.00;;;14.00;24.50;;;;;;5013934;28;20037;-76
2022/01/12 14:07:08;;;;;;;7.43;5.20;;;13.80;25.20;;;;;;5019118;28;20033;-81
2022/01/12 14:09:43;;;;;;;6.60;4.78;;;13.70;25.00;;;;;;4999496;28;20052;-77
2022/01/12 14:12:17;;;;;;;6.35;4.78;;;13.30;25.20;;;;;;4992417;28;20035;-79
2022/01/12 14:14:46;;;;;;;6.25;5.15;;;13.30;25.90;;;;;;5011432;28;20061;-79
2022/01/12 14:17:44;;;;;;;5.72;4.63;;;13.40;26.40;;;;;;4992804;28;20034;-80
2022/01/12 14:20:27;;;;;;;6.10;4.55;;;13.50;26.90;;;;;;4995548;28;20096;-79
2022/01/12 14:23:01;;;;;;;5.38;4.43;;;13.50;26.70;;;;;;5012560;28;20047;-79
2022/01/12 14:25:34;;;;;;;5.63;4.30;;;13.40;25.70;;;;;;5020913;28;20041;-79
2022/01/12 14:28:01;;;;;;;6.28;4.32;;;13.20;26.30;;;;;;5015805;28;20034;-80
2022/01/12 14:30:27;;;;;;;10.18;4.47;;;13.20;26.30;;;;;;5021071;28;20393;-76
2022/01/12 14:32:52;;;;;;;5.82;4.55;;;12.70;26.20;;;;;;5022347;28;20052;-77
2022/01/12 14:35:23;;;;;;;4.80;3.78;;;12.80;26.30;;;;;;5023914;28;20049;-76
2022/01/12 14:37:52;;;;;;;;;;;12.90;26.40;;;;;;5025786;28;20062;-76
2022/01/12 14:40:22;;;;;;;5.72;4.30;;;12.90;26.70;;;;;;5025225;28;19956;-76
2022/01/12 14:42:54;;;;;;;5.70;4.33;;;12.80;27.20;;;;;;5026960;28;20076;-76
2022/01/12 14:45:24;;;;;;;5.95;4.75;;;12.80;27.40;;;;;;5009007;28;20045;-76
2022/01/12 14:47:51;;;;;;;7.72;4.50;;;12.80;27.40;;;;;;5002598;28;20100;-76
2022/01/12 14:50:18;;;;;;;5.80;4.40;;;12.70;27.60;;;;;;5012156;28;20041;-76
2022/01/12 14:52:44;;;;;;;6.18;4.65;;;12.70;28.20;;;;;;5022958;28;20069;-76
2022/01/12 14:55:10;;;;;;;4.63;4.00;;;12.70;29.20;;;;;;5022256;28;20030;-76
2022/01/12 14:57:36;;;;;;;7.15;5.22;;;12.70;30.10;;;;;;5022520;28;20041;-76
2022/01/12 15:00:05;;;;;;;7.03;4.57;;;12.70;29.40;;;;;;5020216;28;20030;-76
2022/01/12 15:02:33;;;;;;;5.53;4.53;;;12.60;30.00;;;;;;4993492;28;20121;-76
2022/01/12 15:04:59;;;;;;;6.07;4.57;;;12.60;29.20;;;;;;5004825;28;20460;-75
2022/01/12 15:07:24;;;;;;;6.40;4.63;;;12.60;29.30;;;;;;4996782;28;20046;-75
2022/01/12 15:09:50;;;;;;;6.05;4.72;;;12.60;29.70;;;;;;5010762;28;20507;-75
2022/01/12 15:12:24;;;;;;;6.57;4.95;;;12.50;31.20;;;;;;5011376;28;20486;-76
2022/01/12 15:15:00;;;;;;;8.13;5.55;;;12.50;33.00;;;;;;5015292;28;20045;-79
2022/01/12 15:17:33;;;;;;;6.80;4.97;;;12.50;33.90;;;;;;5013579;28;20022;-79
2022/01/12 15:19:59;;;;;;;7.30;5.32;;;12.40;34.60;;;;;;4996849;28;20041;-80
2022/01/12 15:22:25;;;;;;;8.32;4.45;;;12.40;33.90;;;;;;4995389;28;20049;-79
2022/01/12 15:24:51;;;;;;;7.65;5.53;;;12.30;33.60;;;;;;5012930;28;20092;-79
2022/01/12 15:27:17;;;;;;;7.10;5.35;;;12.20;34.50;;;;;;5012339;28;20057;-79
2022/01/12 15:29:43;;;;;;;8.60;5.82;;;12.20;35.60;;;;;;5013002;28;20390;-79
2022/01/12 15:32:09;;;;;;;7.18;5.10;;;12.10;38.30;;;;;;5011318;28;20038;-78
2022/01/12 15:34:37;;;;;;;6.35;5.18;;;12.10;37.30;;;;;;5009815;28;20045;-83
2022/01/12 15:37:04;;;;;;;7.35;4.75;;;12.10;37.20;;;;;;5000524;28;20084;-79
2022/01/12 15:39:30;;;;;;;5.80;4.85;;;12.00;37.70;;;;;;5012035;28;20030;-79
2022/01/12 15:41:56;;;;;;;7.57;5.38;;;11.90;37.70;;;;;;5012883;28;20125;-79
2022/01/12 15:44:22;;;;;;;9.98;5.57;;;11.80;38.00;;;;;;5007065;28;20136;-79
2022/01/12 15:46:49;;;;;;;7.95;5.82;;;11.70;37.80;;;;;;5011075;28;20060;-79
2022/01/12 15:49:15;;;;;;;8.18;5.80;;;11.70;37.80;;;;;;5013749;28;20546;-79
2022/01/12 15:51:41;;;;;;;9.48;6.68;;;11.60;38.20;;;;;;5012262;28;20038;-78
2022/01/12 15:54:07;;;;;;;9.27;6.00;;;11.50;39.10;;;;;;5018735;28;20038;-78
2022/01/12 15:56:35;;;;;;;11.00;8.20;;;11.50;39.50;;;;;;5014171;28;20505;-76
2022/01/12 15:59:01;;;;;;;13.13;7.70;;;11.40;38.80;;;;;;5010680;28;20470;-77
2022/01/12 16:01:29;;;;;;;12.63;9.23;;;11.30;38.50;;;;;;5009642;28;20033;-77
2022/01/12 16:03:55;;;;;;;12.38;9.60;;;11.30;38.70;;;;;;5010580;28;20044;-77
2022/01/12 16:06:21;;;;;;;13.23;9.35;;;11.20;39.20;;;;;;5008140;28;20485;-77
2022/01/12 16:08:57;;;;;;;10.73;8.57;;;11.10;39.30;;;;;;5009239;28;20850;-77
2022/01/12 16:11:32;;;;;;;11.43;8.68;;;11.10;39.70;;;;;;5009301;28;20038;-79
2022/01/12 16:14:12;;;;;;;13.90;9.18;;;11.00;40.30;;;;;;4982660;28;20077;-79
2022/01/12 16:16:37;;;;;;;13.98;9.23;;;11.00;40.90;;;;;;4987982;28;20037;-79
2022/01/12 16:19:25;;;;;;;12.40;9.10;;;10.90;40.80;;;;;;5008357;28;20056;-79
2022/01/12 16:22:17;;;;;;;12.88;9.40;;;10.90;40.30;;;;;;4987830;28;20494;-80
2022/01/12 16:24:48;;;;;;;13.90;9.50;;;10.90;40.80;;;;;;4991928;28;21802;-79
2022/01/12 16:27:25;;;;;;;13.45;9.98;;;10.80;41.90;;;;;;5010104;28;20045;-78
2022/01/12 16:29:51;;;;;;;14.52;10.48;;;10.80;41.90;;;;;;4994162;28;20100;-79
2022/01/12 16:32:29;;;;;;;17.00;11.20;;;10.70;42.00;;;;;;5013196;28;20038;-78
2022/01/12 16:35:01;;;;;;;17.38;11.93;;;10.60;42.30;;;;;;5011918;28;20117;-78
2022/01/12 16:37:28;;;;;;;17.13;11.90;;;10.60;42.00;;;;;;5012893;28;20034;-79
2022/01/12 16:39:55;;;;;;;19.33;12.80;;;10.50;42.60;;;;;;5013297;28;20042;-79
2022/01/12 16:42:21;;;;;;;19.95;13.13;;;10.50;42.90;;;;;;5012626;28;20053;-79
2022/01/12 16:44:48;;;;;;;20.67;12.88;;;10.40;43.10;;;;;;5000743;28;20040;-79
2022/01/12 16:47:14;;;;;;;17.48;12.68;;;10.40;43.70;;;;;;5011959;28;20463;-79
2022/01/12 16:49:46;;;;;;;18.13;12.85;;;10.30;43.30;;;;;;5011403;28;20532;-79
2022/01/12 16:52:12;;;;;;;20.55;12.70;;;10.30;42.90;;;;;;5011529;28;20042;-79
2022/01/12 16:54:38;;;;;;;17.88;12.52;;;10.20;43.10;;;;;;5008724;28;20390;-79
2022/01/12 16:57:04;;;;;;;20.42;13.90;;;10.20;43.50;;;;;;5011411;28;20470;-79
2022/01/12 16:59:30;;;;;;;22.45;14.90;;;10.10;43.50;;;;;;4981823;28;20718;-79
2022/01/12 17:01:55;;;;;;;20.63;15.15;;;10.10;43.60;;;;;;4989558;28;20084;-78
2022/01/12 17:04:22;;;;;;;21.02;14.85;;;10.00;43.40;;;;;;4987990;28;20462;-79
2022/01/12 17:06:49;;;;;;;20.77;14.55;;;10.00;43.70;;;;;;5007295;28;20038;-77
2022/01/12 17:09:15;;;;;;;20.45;14.95;;;9.90;44.40;;;;;;5007933;28;20096;-77
2022/01/12 17:11:41;;;;;;;22.38;17.55;;;9.90;44.10;;;;;;5010837;28;20037;-77
2022/01/12 17:14:06;;;;;;;23.17;16.88;;;9.80;44.20;;;;;;5010033;28;20041;-79
2022/01/12 17:16:34;;;;;;;26.75;19.15;;;9.80;44.70;;;;;;5011082;28;20116;-78
2022/01/12 17:19:23;;;;;;;27.88;18.98;;;9.70;44.40;;;;;;4994338;28;20033;-78
2022/01/12 17:21:51;;;;;;;24.63;17.95;;;9.60;44.40;;;;;;5010428;28;20577;-78
2022/01/12 17:24:29;;;;;;;28.73;18.63;;;9.60;44.70;;;;;;4993394;28;20096;-78
2022/01/12 17:27:01;;;;;;;26.48;17.98;;;9.50;45.10;;;;;;5006634;28;20038;-78
2022/01/12 17:29:34;;;;;;;21.98;16.17;;;9.50;45.40;;;;;;5008557;28;20065;-78
2022/01/12 17:32:09;;;;;;;24.02;17.63;;;9.50;45.90;;;;;;4987164;28;20046;-80
2022/01/12 17:34:36;;;;;;;31.23;18.17;;;9.50;46.00;;;;;;4982727;28;20097;-79
2022/01/12 17:37:05;;;;;;;29.42;18.85;;;9.40;46.00;;;;;;5009867;28;20391;-80
2022/01/12 17:39:34;;;;;;;27.95;18.45;;;9.40;46.70;;;;;;5010845;28;20033;-80
2022/01/12 17:42:06;;;;;;;30.35;20.05;;;9.40;46.30;;;;;;4994364;28;20053;-80
2022/01/12 17:44:34;;;;;;;27.20;18.65;;;9.30;46.20;;;;;;5008295;28;20121;-79
2022/01/12 17:47:03;;;;;;;27.35;18.73;;;9.30;46.00;;;;;;5012915;28;20060;-79
2022/01/12 17:50:07;;;;;;;26.50;18.45;;;9.30;46.00;;;;;;4988415;28;20076;-79
2022/01/12 17:52:15;;;;;;;24.15;17.27;;;9.30;46.30;;;;;;5008884;28;20049;-78
2022/01/12 17:54:41;;;;;;;27.58;18.08;;;9.20;46.60;;;;;;5010074;28;20041;-78
2022/01/12 17:57:06;;;;;;;28.55;17.55;;;9.20;46.90;;;;;;5005103;28;20479;-78
2022/01/12 17:59:32;;;;;;;23.30;17.15;;;9.10;47.00;;;;;;4994302;28;20405;-79
2022/01/12 18:01:58;;;;;;;24.92;17.48;;;9.10;46.70;;;;;;5009113;28;20041;-78
2022/01/12 18:04:23;;;;;;;23.33;17.08;;;9.10;46.40;;;;;;4991580;28;20054;-78
2022/01/12 18:06:50;;;;;;;28.20;17.85;;;9.00;46.10;;;;;;5009406;28;20038;-79
2022/01/12 18:09:16;;;;;;;23.17;16.58;;;9.00;46.30;;;;;;4990678;28;20057;-79
2022/01/12 18:11:41;;;;;;;23.67;16.75;;;9.00;46.90;;;;;;5004483;28;20517;-79
2022/01/12 18:14:10;;;;;;;23.65;16.58;;;8.90;47.40;;;;;;5008590;28;20416;-78
2022/01/12 18:16:49;;;;;;;23.58;16.95;;;8.90;47.40;;;;;;5007903;28;20047;-78
2022/01/12 18:19:24;;;;;;;23.42;17.63;;;8.90;47.60;;;;;;5008653;28;20476;-78
2022/01/12 18:21:50;;;;;;;23.08;16.73;;;8.90;47.40;;;;;;5007187;28;20033;-78
2022/01/12 18:24:17;;;;;;;24.88;17.27;;;8.80;47.40;;;;;;5006747;28;20034;-79
2022/01/12 18:26:43;;;;;;;25.52;17.90;;;8.80;48.00;;;;;;5007189;28;20080;-78
2022/01/12 18:29:10;;;;;;;25.02;17.80;;;8.80;48.40;;;;;;5007240;28;20077;-79
2022/01/12 18:31:36;;;;;;;24.77;17.60;;;8.80;48.50;;;;;;5005055;28;20062;-79
2022/01/12 18:34:03;;;;;;;34.42;21.20;;;8.70;48.50;;;;;;5008647;28;20065;-79
2022/01/12 18:36:28;;;;;;;29.35;20.48;;;8.70;48.40;;;;;;5007876;28;20545;-78
2022/01/12 18:38:54;;;;;;;32.08;20.33;;;8.70;48.40;;;;;;5008887;28;20133;-78
2022/01/12 18:41:20;;;;;;;32.85;19.33;;;8.70;48.90;;;;;;5008903;28;20046;-79
2022/01/12 18:43:45;;;;;;;26.67;19.35;;;8.60;49.20;;;;;;5008076;28;20481;-78
2022/01/12 18:46:11;;;;;;;27.17;19.60;;;8.60;49.60;;;;;;5007672;28;20042;-80
2022/01/12 18:48:37;;;;;;;24.95;19.20;;;8.60;49.60;;;;;;5012429;28;20046;-80
2022/01/12 18:51:03;;;;;;;30.83;19.20;;;8.60;49.60;;;;;;5007191;28;20181;-79
2022/01/12 18:53:29;;;;;;;27.95;19.40;;;8.60;49.50;;;;;;5004139;28;20093;-78
2022/01/12 18:55:55;;;;;;;28.50;18.02;;;8.50;49.80;;;;;;4996277;28;20405;-83
2022/01/12 18:58:21;;;;;;;26.08;18.45;;;8.50;50.20;;;;;;5004382;28;20505;-82
2022/01/12 19:00:47;;;;;;;30.77;18.60;;;8.50;49.80;;;;;;4996346;28;20038;-82
2022/01/12 19:03:13;;;;;;;26.25;18.08;;;8.40;49.40;;;;;;5006826;28;20133;-82
2022/01/12 19:05:40;;;;;;;25.40;17.70;;;8.40;49.70;;;;;;5001923;28;20046;-82
2022/01/12 19:08:06;;;;;;;27.38;18.63;;;8.40;50.00;;;;;;5005934;28;20050;-82
2022/01/12 19:10:32;;;;;;;24.13;16.92;;;8.40;50.70;;;;;;5010743;28;20045;-81
2022/01/12 19:12:58;;;;;;;24.75;18.13;;;8.40;51.10;;;;;;5011555;28;20037;-82
2022/01/12 19:15:25;;;;;;;26.70;18.65;;;8.30;50.70;;;;;;5011551;28;20445;-82
2022/01/12 19:17:51;;;;;;;29.45;20.13;;;8.30;50.30;;;;;;5012048;28;20083;-82
2022/01/12 19:20:17;;;;;;;31.33;21.15;;;8.30;50.30;;;;;;5014658;28;20441;-82
2022/01/12 19:22:43;;;;;;;31.73;22.25;;;8.30;50.40;;;;;;4994571;28;20493;-81
2022/01/12 19:25:10;;;;;;;30.63;19.95;;;8.20;50.70;;;;;;5015710;28;20033;-81
2022/01/12 19:27:36;;;;;;;26.02;19.20;;;8.20;51.00;;;;;;5011701;28;20124;-82
2022/01/12 19:30:03;;;;;;;27.08;19.50;;;8.20;51.10;;;;;;5012224;28;20073;-76